Time;durP1;ratioP1;P1;durP2;ratioP2;P2;SDS_P1;SDS_P2;PMS_P1;PMS_P2;Temp;Humidity;BMP_temperature;BMP_pressure;BME280_temperature;BME280_humidity;BME280_pressure;Samples;Min_cycle;Max_cycle;Signal;HPM_P1;HPM_P2
2024/01/08 00:00:46;;;;;;;5.57;5.18;;;;;;;1.35;100.00;95491.44;5045704;28;20035;-70
2024/01/08 00:03:11;;;;;;;3.13;2.88;;;;;;;1.47;100.00;95495.06;5043307;28;20031;-71
2024/01/08 00:05:40;;;;;;;3.13;2.92;;;;;;;1.45;100.00;95488.31;5044904;28;20013;-70
2024/01/08 00:08:07;;;;;;;3.10;2.90;;;;;;;1.40;100.00;95488.56;5055928;28;20024;-70
2024/01/08 00:10:32;;;;;;;2.95;2.75;;;;;;;1.32;100.00;95494.22;5046357;28;20052;-70
2024/01/08 00:12:57;;;;;;;2.50;2.40;;;;;;;1.42;100.00;95494.50;5052791;28;20028;-70
2024/01/08 00:15:23;;;;;;;2.53;2.30;;;;;;;1.23;100.00;95487.81;5042110;28;20597;-70
2024/01/08 00:17:48;;;;;;;2.97;2.78;;;;;;;1.21;100.00;95491.41;5047468;28;20025;-70
2024/01/08 00:20:14;;;;;;;2.80;2.63;;;;;;;1.31;100.00;95497.72;5044238;28;20029;-69
2024/01/08 00:22:39;;;;;;;2.53;2.42;;;;;;;1.32;100.00;95498.56;5042820;28;20041;-70
2024/01/08 00:25:06;;;;;;;2.75;2.55;;;;;;;1.25;100.00;95498.91;5051288;28;20017;-70
2024/01/08 00:27:32;;;;;;;2.80;2.70;;;;;;;1.21;100.00;95496.59;5054171;28;20059;-70
2024/01/08 00:29:58;;;;;;;3.30;3.10;;;;;;;1.15;100.00;95495.19;5050129;28;20030;-70
2024/01/08 00:32:23;;;;;;;2.35;2.25;;;;;;;1.26;100.00;95497.19;5049507;28;20076;-70
2024/01/08 00:34:49;;;;;;;2.03;1.92;;;;;;;1.36;100.00;95500.88;5044124;28;20025;-70
2024/01/08 00:37:14;;;;;;;2.65;2.53;;;;;;;1.17;100.00;95495.09;5052432;28;20032;-70
2024/01/08 00:39:39;;;;;;;2.60;2.50;;;;;;;1.13;100.00;95492.69;5052123;28;20128;-70
2024/01/08 00:42:05;;;;;;;2.47;2.38;;;;;;;1.15;100.00;95502.97;5050065;28;20033;-70
2024/01/08 00:44:30;;;;;;;2.65;2.50;;;;;;;1.13;100.00;95494.47;5051507;28;20083;-70
2024/01/08 00:46:56;;;;;;;2.40;2.30;;;;;;;1.07;100.00;95495.63;5048457;28;20039;-70
2024/01/08 00:49:21;;;;;;;2.80;2.70;;;;;;;1.07;100.00;95508.59;5047942;28;20029;-70
2024/01/08 00:51:46;;;;;;;2.83;2.63;;;;;;;1.13;100.00;95502.25;5049091;28;20027;-70
2024/01/08 00:54:12;;;;;;;2.20;2.10;;;;;;;1.08;100.00;95501.66;5047816;28;20024;-70
2024/01/08 00:56:37;;;;;;;2.95;2.78;;;;;;;1.14;100.00;95498.72;5051732;28;20017;-70
2024/01/08 00:59:03;;;;;;;2.42;2.33;;;;;;;1.12;100.00;95505.75;5044177;28;20052;-70
2024/01/08 01:01:28;;;;;;;2.67;2.58;;;;;;;1.03;100.00;95501.94;5040922;28;20048;-70
2024/01/08 01:03:54;;;;;;;3.67;2.85;;;;;;;0.89;100.00;95522.63;5046857;28;20024;-70
2024/01/08 01:06:21;;;;;;;2.90;2.70;;;;;;;0.88;100.00;95526.13;5047367;28;20044;-70
2024/01/08 01:08:47;;;;;;;2.63;2.42;;;;;;;0.88;100.00;95519.16;5049503;28;20021;-70
2024/01/08 01:11:12;;;;;;;2.95;2.85;;;;;;;0.74;100.00;95524.31;5053263;28;20489;-70
2024/01/08 01:13:37;;;;;;;2.25;2.15;;;;;;;0.68;100.00;95536.69;5044399;28;20489;-70
2024/01/08 01:16:03;;;;;;;2.58;2.47;;;;;;;0.68;100.00;95541.03;5042528;28;20024;-70
2024/01/08 01:18:28;;;;;;;2.65;2.45;;;;;;;0.61;100.00;95544.91;5038953;28;20422;-70
2024/01/08 01:20:54;;;;;;;2.80;2.70;;;;;;;0.70;100.00;95539.19;5045672;28;20047;-70
2024/01/08 01:23:19;;;;;;;3.50;3.20;;;;;;;0.63;100.00;95532.69;5052707;28;20017;-70
2024/01/08 01:25:44;;;;;;;3.10;2.90;;;;;;;0.63;100.00;95540.47;5048766;28;20088;-70
2024/01/08 01:28:10;;;;;;;2.67;2.58;;;;;;;0.66;100.00;95540.28;5047338;28;20017;-70
2024/01/08 01:30:35;;;;;;;2.55;2.45;;;;;;;0.69;100.00;95543.56;5047890;28;20025;-71
2024/01/08 01:33:00;;;;;;;2.58;2.47;;;;;;;0.61;100.00;95544.91;5045014;28;20429;-70
2024/01/08 01:35:26;;;;;;;3.17;2.97;;;;;;;0.48;100.00;95555.91;5046526;28;20032;-70
2024/01/08 01:37:51;;;;;;;2.97;2.83;;;;;;;0.50;100.00;95548.91;5052063;28;20021;-70
2024/01/08 01:40:16;;;;;;;3.38;3.17;;;;;;;0.68;100.00;95547.06;5052085;28;20028;-70
2024/01/08 01:42:42;;;;;;;3.13;2.92;;;;;;;0.50;100.00;95546.31;5047770;28;20386;-70
2024/01/08 01:45:08;;;;;;;2.70;2.60;;;;;;;0.45;100.00;95561.25;5046288;28;20049;-70
2024/01/08 01:47:33;;;;;;;3.05;2.92;;;;;;;0.45;100.00;95566.44;5041428;28;20042;-70
2024/01/08 01:49:59;;;;;;;2.67;2.58;;;;;;;0.49;100.00;95559.34;5048033;28;20032;-70
2024/01/08 01:52:26;;;;;;;2.70;2.58;;;;;;;0.48;100.00;95568.03;5065491;28;20031;-70
2024/01/08 01:54:51;;;;;;;2.85;2.65;;;;;;;0.44;100.00;95562.19;5047063;28;20029;-70
2024/01/08 01:57:17;;;;;;;2.70;2.60;;;;;;;0.39;100.00;95564.19;5045662;28;20029;-70
2024/01/08 01:59:42;;;;;;;3.33;3.03;;;;;;;0.42;100.00;95556.25;5051719;28;20025;-70
2024/01/08 02:02:10;;;;;;;2.53;2.42;;;;;;;0.28;100.00;95564.78;5039853;28;20121;-70
2024/01/08 02:04:37;;;;;;;2.97;2.78;;;;;;;0.31;100.00;95568.94;5040212;28;20013;-70
2024/01/08 02:07:04;;;;;;;2.80;2.70;;;;;;;0.41;100.00;95555.41;5048661;28;20603;-70
2024/01/08 02:09:29;;;;;;;3.20;2.97;;;;;;;0.28;100.00;95564.78;5048703;28;20025;-70
2024/01/08 02:11:55;;;;;;;2.80;2.70;;;;;;;0.35;100.00;95568.69;5036013;28;20029;-70
2024/01/08 02:14:21;;;;;;;3.28;3.08;;;;;;;0.31;100.00;95561.16;5040416;28;20032;-70
2024/01/08 02:16:48;;;;;;;3.50;3.30;;;;;;;0.28;100.00;95563.00;5043209;28;20116;-70
2024/01/08 02:19:13;;;;;;;3.90;3.60;;;;;;;0.24;100.00;95558.91;5045051;28;20021;-70
2024/01/08 02:21:39;;;;;;;3.35;3.15;;;;;;;0.39;100.00;95553.84;5040665;28;20033;-70
2024/01/08 02:24:05;;;;;;;3.45;3.25;;;;;;;0.41;100.00;95555.41;5040117;28;20025;-70
2024/01/08 02:26:31;;;;;;;3.22;3.03;;;;;;;0.50;100.00;95546.31;5041534;28;20105;-70
2024/01/08 02:28:56;;;;;;;2.80;2.60;;;;;;;0.56;100.00;95543.41;5047834;28;20017;-70
2024/01/08 02:31:22;;;;;;;7.10;3.55;;;;;;;0.43;100.00;95540.63;5044766;28;20052;-70
2024/01/08 02:33:47;;;;;;;3.33;3.13;;;;;;;0.49;100.00;95544.63;5049054;28;20335;-70
2024/01/08 02:36:13;;;;;;;3.40;3.20;;;;;;;0.46;100.00;95551.75;5050581;28;20020;-70
2024/01/08 02:38:38;;;;;;;3.80;3.50;;;;;;;0.46;100.00;95544.00;5048898;28;20030;-70
2024/01/08 02:41:04;;;;;;;3.33;3.13;;;;;;;0.48;100.00;95540.38;5048847;28;20063;-70
2024/01/08 02:43:29;;;;;;;3.72;3.42;;;;;;;0.56;100.00;95537.38;5052438;28;20036;-70
2024/01/08 02:45:54;;;;;;;3.30;3.10;;;;;;;0.35;100.00;95537.63;5040896;28;20036;-70
2024/01/08 02:48:20;;;;;;;4.65;3.97;;;;;;;0.33;100.00;95547.22;5042145;28;20079;-70
2024/01/08 02:50:45;;;;;;;4.18;3.88;;;;;;;0.46;100.00;95549.97;5059444;28;20496;-70
2024/01/08 02:53:10;;;;;;;3.67;3.47;;;;;;;0.39;100.00;95546.06;5046848;28;20058;-70
2024/01/08 02:55:36;;;;;;;3.83;3.53;;;;;;;0.36;100.00;95548.81;5052900;28;20017;-70
2024/01/08 02:58:05;;;;;;;4.28;4.07;;;;;;;0.26;100.00;95554.47;5048248;28;20461;-70
2024/01/08 03:00:31;;;;;;;4.05;3.72;;;;;;;0.28;100.00;95555.22;5044658;28;20090;-70
2024/01/08 03:02:56;;;;;;;4.03;3.83;;;;;;;0.25;100.00;95563.16;5050697;28;20036;-70
2024/01/08 03:05:21;;;;;;;4.07;3.78;;;;;;;0.21;100.00;95556.50;5046194;28;20104;-70
2024/01/08 03:07:47;;;;;;;4.03;3.72;;;;;;;0.13;100.00;95559.47;5044812;28;20028;-70
2024/01/08 03:10:12;;;;;;;3.95;3.65;;;;;;;0.16;100.00;95558.50;5049684;28;20029;-70
2024/01/08 03:12:38;;;;;;;7.47;6.72;;;;;;;0.10;100.00;95558.78;5046903;28;20029;-70
2024/01/08 03:15:04;;;;;;;6.22;5.32;;;;;;;0.12;100.00;95564.75;5042523;28;20028;-70
2024/01/08 03:17:29;;;;;;;4.82;4.40;;;;;;;0.14;100.00;95566.34;5051461;28;20024;-70
2024/01/08 03:19:54;;;;;;;4.10;3.80;;;;;;;0.03;100.00;95570.41;5049747;28;20029;-70
2024/01/08 03:22:20;;;;;;;4.72;4.43;;;;;;;0.07;100.00;95575.34;5057953;28;20112;-70
2024/01/08 03:24:45;;;;;;;3.45;3.25;;;;;;;-0.06;100.00;95577.75;5048394;28;20140;-70
2024/01/08 03:27:10;;;;;;;4.43;4.13;;;;;;;-0.06;100.00;95567.38;5049733;28;20508;-70
2024/01/08 03:29:37;;;;;;;4.25;3.95;;;;;;;-0.09;100.00;95572.72;5047670;28;20033;-70
2024/01/08 03:32:03;;;;;;;4.20;3.90;;;;;;;-0.13;100.00;95560.84;5049627;28;20569;-70
2024/01/08 03:34:28;;;;;;;5.07;4.00;;;;;;;-0.10;100.00;95565.88;5057250;28;20025;-70
2024/01/08 03:36:54;;;;;;;4.43;4.05;;;;;;;0.01;100.00;95567.06;5049855;28;20025;-70
2024/01/08 03:39:19;;;;;;;4.65;4.25;;;;;;;-0.12;100.00;95577.22;5056411;28;20060;-70
2024/01/08 03:41:44;;;;;;;4.43;4.10;;;;;;;-0.24;100.00;95566.56;5047586;28;20037;-70
2024/01/08 03:44:10;;;;;;;4.55;4.05;;;;;;;-0.12;100.00;95572.03;5048407;28;20029;-70
2024/01/08 03:46:36;;;;;;;4.20;3.80;;;;;;;-0.16;100.00;95571.34;5046178;28;20029;-70
2024/01/08 03:49:02;;;;;;;4.18;3.88;;;;;;;-0.17;100.00;95577.44;5055128;28;20063;-70
2024/01/08 03:51:28;;;;;;;4.35;4.05;;;;;;;-0.21;100.00;95573.34;5046660;28;20101;-70
2024/01/08 03:53:54;;;;;;;4.00;3.80;;;;;;;-0.15;100.00;95573.03;5048492;28;20393;-70
2024/01/08 03:56:19;;;;;;;4.03;3.30;;;;;;;-0.04;100.00;95578.50;5053458;28;20060;-70
2024/01/08 03:58:44;;;;;;;3.95;3.65;;;;;;;0.04;100.00;95577.25;5053056;28;20029;-70
2024/01/08 04:01:11;;;;;;;4.10;3.80;;;;;;;0.04;100.00;95577.25;5038927;28;20090;-70
2024/01/08 04:03:37;;;;;;;5.80;3.28;;;;;;;0.08;100.00;95589.13;5048462;28;20033;-70
2024/01/08 04:06:03;;;;;;;4.20;3.90;;;;;;;0.02;100.00;95585.13;5046497;28;20017;-70
2024/01/08 04:08:28;;;;;;;4.95;4.65;;;;;;;-0.04;100.00;95585.41;5048622;28;20398;-71
2024/01/08 04:10:53;;;;;;;4.00;3.70;;;;;;;0.02;100.00;95584.25;5052220;28;20131;-70
2024/01/08 04:13:19;;;;;;;15.75;14.35;;;;;;;-0.25;100.00;95582.19;5049142;28;20105;-70
2024/01/08 04:15:44;;;;;;;4.13;3.83;;;;;;;-0.17;100.00;95595.56;5053027;28;20028;-70
2024/01/08 04:18:10;;;;;;;3.97;3.78;;;;;;;-0.29;100.00;95599.63;5041324;28;20021;-70
2024/01/08 04:20:35;;;;;;;4.78;4.45;;;;;;;-0.38;100.00;95595.72;5054742;28;20029;-70
2024/01/08 04:23:00;;;;;;;6.15;5.35;;;;;;;-0.24;100.00;95601.97;5054873;28;20378;-70
2024/01/08 04:25:26;;;;;;;8.35;7.57;;;;;;;-0.35;100.00;95599.94;5054795;28;20035;-70
2024/01/08 04:27:51;;;;;;;4.90;4.60;;;;;;;-0.41;100.00;95608.81;5047028;28;20486;-70
2024/01/08 04:30:17;;;;;;;4.45;4.15;;;;;;;-0.47;100.00;95609.97;5051213;28;20060;-70
2024/01/08 04:32:42;;;;;;;5.13;4.72;;;;;;;-0.52;100.00;95599.00;5065988;28;20070;-70
2024/01/08 04:35:08;;;;;;;4.38;4.07;;;;;;;-0.41;100.00;95608.81;5051945;28;20082;-70
2024/01/08 04:37:33;;;;;;;5.38;4.97;;;;;;;-0.47;100.00;95609.16;5043013;28;20026;-70
2024/01/08 04:39:59;;;;;;;7.40;6.72;;;;;;;-0.54;100.00;95602.59;5052269;28;20063;-70
2024/01/08 04:42:24;;;;;;;6.38;5.88;;;;;;;-0.53;100.00;95612.88;5044620;28;20112;-70
2024/01/08 04:44:49;;;;;;;5.80;5.25;;;;;;;-0.45;100.00;95608.13;5055954;28;20032;-70
2024/01/08 04:47:15;;;;;;;6.75;6.20;;;;;;;-0.48;100.00;95610.88;5056165;28;20087;-70
2024/01/08 04:49:40;;;;;;;5.80;5.32;;;;;;;-0.50;100.00;95612.72;5056093;28;20024;-70
2024/01/08 04:52:06;;;;;;;5.28;4.95;;;;;;;-0.52;100.00;95605.97;5046279;28;20126;-70
2024/01/08 04:54:31;;;;;;;4.10;3.88;;;;;;;-0.53;100.00;95599.13;5056236;28;20118;-70
2024/01/08 04:56:57;;;;;;;4.90;4.60;;;;;;;-0.42;100.00;95607.16;5043638;28;20021;-70
2024/01/08 04:59:23;;;;;;;4.70;4.30;;;;;;;-0.40;100.00;95610.50;5052705;28;20473;-70
2024/01/08 05:01:49;;;;;;;4.70;4.40;;;;;;;-0.37;100.00;95610.34;5055141;28;20025;-70
2024/01/08 05:04:15;;;;;;;4.68;4.32;;;;;;;-0.52;100.00;95611.13;5056099;28;20107;-70
2024/01/08 05:06:43;;;;;;;7.03;6.53;;;;;;;-0.52;100.00;95618.88;5055911;28;20043;-70
2024/01/08 05:09:08;;;;;;;4.03;3.78;;;;;;;-0.53;100.00;95615.44;5053899;28;20078;-70
2024/01/08 05:11:34;;;;;;;5.05;4.75;;;;;;;-0.52;100.00;95621.47;5055914;28;20024;-70
2024/01/08 05:14:00;;;;;;;4.93;4.40;;;;;;;-0.59;100.00;95620.94;5051479;28;20067;-70
2024/01/08 05:16:25;;;;;;;6.20;5.70;;;;;;;-0.59;100.00;95628.69;5055546;28;20057;-70
2024/01/08 05:18:51;;;;;;;6.07;5.57;;;;;;;-0.68;100.00;95627.38;5055704;28;20048;-70
2024/01/08 05:21:16;;;;;;;5.28;4.78;;;;;;;-0.64;100.00;95633.25;5054399;28;20101;-70
2024/01/08 05:23:41;;;;;;;4.57;4.20;;;;;;;-0.54;100.00;95628.47;5054459;28;20032;-70
2024/01/08 05:26:07;;;;;;;5.68;5.18;;;;;;;-0.59;100.00;95626.09;5053073;28;20025;-70
2024/01/08 05:28:33;;;;;;;5.47;4.97;;;;;;;-0.60;100.00;95627.03;5050852;28;20025;-70
2024/01/08 05:30:58;;;;;;;3.80;3.60;;;;;;;-0.47;100.00;95632.41;5051290;28;20020;-70
2024/01/08 05:33:25;;;;;;;4.10;3.80;;;;;;;-0.47;100.00;95627.25;5049493;28;20037;-69
2024/01/08 05:35:51;;;;;;;5.32;4.82;;;;;;;-0.42;100.00;95621.84;5051287;28;20025;-70
2024/01/08 05:38:16;;;;;;;4.75;4.45;;;;;;;-0.45;100.00;95622.84;5054480;28;20028;-70
2024/01/08 05:40:42;;;;;;;3.88;3.60;;;;;;;-0.34;100.00;95628.28;5050999;28;20052;-70
2024/01/08 05:43:07;;;;;;;3.78;3.55;;;;;;;-0.45;100.00;95628.00;5050900;28;20056;-70
2024/01/08 05:45:32;;;;;;;3.40;3.20;;;;;;;-0.43;100.00;95628.75;5043248;28;20025;-70
2024/01/08 05:47:58;;;;;;;3.15;2.95;;;;;;;-0.30;100.00;95627.25;5046647;28;20049;-70
2024/01/08 05:50:30;;;;;;;3.13;2.92;;;;;;;-0.20;100.00;95632.81;5053390;28;20052;-69
2024/01/08 05:52:55;;;;;;;3.70;3.50;;;;;;;-0.30;100.00;95634.16;5049946;28;20021;-70
2024/01/08 05:55:21;;;;;;;4.07;3.78;;;;;;;-0.33;100.00;95627.41;5046702;28;20622;-70
2024/01/08 05:57:47;;;;;;;4.07;3.78;;;;;;;-0.32;100.00;95633.41;5054885;28;20028;-70
2024/01/08 06:00:14;;;;;;;3.83;3.60;;;;;;;-0.36;100.00;95637.88;5044849;28;20021;-70
2024/01/08 06:02:39;;;;;;;3.72;3.47;;;;;;;-0.43;100.00;95631.34;5053949;28;20024;-70
2024/01/08 06:05:06;;;;;;;3.70;3.40;;;;;;;-0.44;100.00;95640.88;5051559;28;20025;-70
2024/01/08 06:07:31;;;;;;;3.65;3.35;;;;;;;-0.46;100.00;95640.09;5051325;28;20415;-70
2024/01/08 06:09:57;;;;;;;4.00;3.80;;;;;;;-0.46;100.00;95644.44;5054214;28;20029;-70
2024/01/08 06:12:22;;;;;;;4.10;3.80;;;;;;;-0.45;100.00;95651.28;5058552;28;20054;-69
2024/01/08 06:14:49;;;;;;;3.95;3.65;;;;;;;-0.48;100.00;95647.09;5050869;28;20028;-70
2024/01/08 06:17:14;;;;;;;3.88;3.58;;;;;;;-0.38;100.00;95644.88;5051423;28;20021;-70
2024/01/08 06:19:40;;;;;;;10.20;5.85;;;;;;;-0.44;100.00;95652.97;5051210;28;20393;-70
2024/01/08 06:22:05;;;;;;;4.85;4.45;;;;;;;-0.49;100.00;95648.00;5054826;28;20029;-70
2024/01/08 06:24:31;;;;;;;4.40;4.10;;;;;;;-0.42;100.00;95653.72;5053191;28;20107;-69
2024/01/08 06:26:56;;;;;;;3.75;3.55;;;;;;;-0.39;100.00;95653.56;5051028;28;20025;-70
2024/01/08 06:29:22;;;;;;;3.47;3.28;;;;;;;-0.41;100.00;95655.41;5047705;28;20036;-69
2024/01/08 06:31:47;;;;;;;3.92;3.72;;;;;;;-0.48;100.00;95652.25;5049722;28;20017;-69
2024/01/08 06:34:13;;;;;;;4.40;4.10;;;;;;;-0.54;100.00;95657.75;5047443;28;20036;-70
2024/01/08 06:36:41;;;;;;;3.90;3.70;;;;;;;-0.56;100.00;95656.13;5054238;28;20031;-70
2024/01/08 06:39:09;;;;;;;4.25;3.95;;;;;;;-0.67;100.00;95647.16;5052359;28;20021;-68
2024/01/08 06:41:35;;;;;;;3.78;3.50;;;;;;;-0.60;100.00;95651.13;5059286;28;20106;-69
2024/01/08 06:44:01;;;;;;;4.00;3.80;;;;;;;-0.56;100.00;95659.56;5045828;28;20072;-70
2024/01/08 06:46:26;;;;;;;4.13;3.88;;;;;;;-0.60;100.00;95665.81;5037428;28;20030;-69
2024/01/08 06:48:51;;;;;;;3.25;3.05;;;;;;;-0.55;100.00;95657.81;5048057;28;20056;-70
2024/01/08 06:51:17;;;;;;;3.97;3.67;;;;;;;-0.53;100.00;95658.59;5049517;28;20053;-69
2024/01/08 06:53:42;;;;;;;3.80;3.60;;;;;;;-0.54;100.00;95657.75;5049942;28;20504;-68
2024/01/08 06:56:09;;;;;;;4.00;3.80;;;;;;;-0.63;100.00;95661.59;5041753;28;20104;-69
2024/01/08 06:58:34;;;;;;;4.65;4.25;;;;;;;-0.68;100.00;95667.91;5050991;28;20029;-71
2024/01/08 07:01:00;;;;;;;4.30;4.00;;;;;;;-0.66;100.00;95664.34;5054901;28;20025;-69
2024/01/08 07:03:25;;;;;;;4.22;3.92;;;;;;;-0.63;100.00;95669.38;5051278;28;20465;-69
2024/01/08 07:05:50;;;;;;;3.30;3.10;;;;;;;-0.55;100.00;95665.56;5057138;28;20029;-68
2024/01/08 07:08:16;;;;;;;3.95;3.72;;;;;;;-0.62;100.00;95665.88;5053598;28;20107;-69
2024/01/08 07:10:42;;;;;;;4.20;3.90;;;;;;;-0.69;100.00;95664.50;5051618;28;20029;-71
2024/01/08 07:13:07;;;;;;;3.72;3.53;;;;;;;-0.68;100.00;95666.19;5049078;28;20021;-69
2024/01/08 07:15:36;;;;;;;3.78;3.58;;;;;;;-0.70;100.00;95670.59;5045448;28;20772;-67
2024/01/08 07:18:01;;;;;;;3.78;3.58;;;;;;;-0.69;100.00;95661.91;5055770;28;20032;-68
2024/01/08 07:20:27;;;;;;;2.80;2.53;;;;;;;-0.64;100.00;95659.13;5048939;28;20030;-69
2024/01/08 07:22:52;;;;;;;3.92;3.30;;;;;;;-0.61;100.00;95661.56;5050997;28;20033;-69
2024/01/08 07:25:17;;;;;;;3.47;3.17;;;;;;;-0.56;100.00;95663.91;5053723;28;20044;-69
2024/01/08 07:27:43;;;;;;;2.38;2.28;;;;;;;-0.56;100.00;95674.25;5060663;28;20030;-69
2024/01/08 07:30:09;;;;;;;3.20;3.00;;;;;;;-0.73;100.00;95668.97;5054828;28;20024;-69
2024/01/08 07:32:35;;;;;;;2.90;2.80;;;;;;;-0.72;100.00;95673.22;5056643;28;20024;-69
2024/01/08 07:35:02;;;;;;;3.42;3.22;;;;;;;-0.69;100.00;95679.16;5056075;28;20086;-69
2024/01/08 07:37:27;;;;;;;3.53;3.33;;;;;;;-0.60;100.00;95676.97;5051848;28;20115;-69
2024/01/08 07:39:52;;;;;;;3.78;3.45;;;;;;;-0.59;100.00;95678.66;5053127;28;20049;-69
2024/01/08 07:42:18;;;;;;;3.30;3.10;;;;;;;-0.58;100.00;95679.50;5049619;28;20060;-68
2024/01/08 07:44:43;;;;;;;3.80;3.55;;;;;;;-0.62;100.00;95681.38;5043284;28;20033;-69
2024/01/08 07:47:09;;;;;;;3.80;3.60;;;;;;;-0.58;100.00;95687.25;5041468;28;20151;-68
2024/01/08 07:49:34;;;;;;;3.60;3.30;;;;;;;-0.54;100.00;95687.97;5052868;28;20115;-69
2024/01/08 07:51:59;;;;;;;3.90;3.60;;;;;;;-0.69;100.00;95692.94;5070022;28;20119;-68
2024/01/08 07:54:25;;;;;;;4.10;3.80;;;;;;;-0.69;100.00;95703.28;5054141;28;20135;-68
2024/01/08 07:56:50;;;;;;;4.15;3.80;;;;;;;-0.62;100.00;95709.84;5054176;28;20036;-68
2024/01/08 07:59:15;;;;;;;3.30;3.10;;;;;;;-0.56;100.00;95707.84;5055183;28;20024;-69
2024/01/08 08:01:41;;;;;;;4.03;3.63;;;;;;;-0.68;100.00;95714.44;5052107;28;20037;-69
2024/01/08 08:04:06;;;;;;;4.68;4.35;;;;;;;-0.74;100.00;95725.94;5053827;28;20085;-68
2024/01/08 08:06:31;;;;;;;3.67;3.42;;;;;;;-0.61;100.00;95716.69;5054660;28;20029;-68
2024/01/08 08:08:57;;;;;;;4.15;3.85;;;;;;;-0.72;100.00;95724.13;5052433;28;20031;-69
2024/01/08 08:11:22;;;;;;;4.20;3.97;;;;;;;-0.74;100.00;95726.75;5051244;28;20021;-69
2024/01/08 08:13:48;;;;;;;4.25;3.95;;;;;;;-0.72;100.00;95734.47;5049943;28;20020;-69
2024/01/08 08:16:13;;;;;;;4.88;3.65;;;;;;;-0.72;100.00;95727.53;5048078;28;20009;-68
2024/01/08 08:18:39;;;;;;;3.95;3.65;;;;;;;-0.70;100.00;95739.53;5050470;28;20034;-69
2024/01/08 08:21:04;;;;;;;4.28;4.07;;;;;;;-0.77;100.00;95747.59;5040868;28;20060;-69
2024/01/08 08:23:32;;;;;;;4.13;3.90;;;;;;;-0.76;100.00;95749.28;5055427;28;20029;-68
2024/01/08 08:25:58;;;;;;;4.25;4.05;;;;;;;-0.73;100.00;95753.47;5040936;28;20025;-69
2024/01/08 08:28:23;;;;;;;4.15;3.85;;;;;;;-0.83;100.00;95757.38;5052803;28;20493;-69
2024/01/08 08:30:49;;;;;;;4.18;3.88;;;;;;;-0.89;100.00;95754.19;5050334;28;20069;-69
2024/01/08 08:33:14;;;;;;;4.25;3.95;;;;;;;-0.84;100.00;95756.56;5055510;28;20021;-69
2024/01/08 08:35:39;;;;;;;5.15;4.75;;;;;;;-0.88;100.00;95771.38;5045828;28;20033;-69
2024/01/08 08:38:05;;;;;;;4.40;4.10;;;;;;;-0.80;100.00;95765.84;5048150;28;20059;-69
2024/01/08 08:40:30;;;;;;;6.13;4.70;;;;;;;-0.85;100.00;95765.22;5051117;28;20052;-69
2024/01/08 08:42:56;;;;;;;4.45;4.15;;;;;;;-0.85;100.00;95766.97;5048381;28;20050;-69
2024/01/08 08:45:21;;;;;;;4.22;3.92;;;;;;;-0.84;100.00;95774.66;5040367;28;20072;-68
2024/01/08 08:47:47;;;;;;;3.70;3.50;;;;;;;-0.77;100.00;95772.63;5049155;28;20041;-69
2024/01/08 08:50:12;;;;;;;4.25;3.95;;;;;;;-0.83;100.00;95767.72;5053645;28;20050;-69
2024/01/08 08:52:39;;;;;;;4.80;4.40;;;;;;;-0.75;100.00;95763.06;5053143;28;20055;-68
2024/01/08 08:55:05;;;;;;;5.18;3.90;;;;;;;-0.69;100.00;95770.53;5050914;28;20492;-69
2024/01/08 08:57:30;;;;;;;4.15;3.85;;;;;;;-0.79;100.00;95764.94;5052967;28;20020;-69
2024/01/08 08:59:55;;;;;;;4.90;4.50;;;;;;;-0.76;100.00;95776.91;5053301;28;20032;-69
2024/01/08 09:02:22;;;;;;;5.00;4.60;;;;;;;-0.75;100.00;95770.81;5046080;28;20021;-69
2024/01/08 09:04:49;;;;;;;5.20;4.80;;;;;;;-0.83;100.00;95783.22;5051944;28;20116;-69
2024/01/08 09:07:14;;;;;;;4.97;4.57;;;;;;;-0.81;100.00;95786.59;5054319;28;20041;-69
2024/01/08 09:09:40;;;;;;;5.18;4.50;;;;;;;-0.75;100.00;95781.16;5050381;28;20040;-69
2024/01/08 09:12:06;;;;;;;4.88;4.50;;;;;;;-0.87;100.00;95780.78;5045525;28;20021;-69
2024/01/08 09:14:31;;;;;;;4.38;4.07;;;;;;;-0.82;100.00;95796.09;5049331;28;20044;-69
2024/01/08 09:16:57;;;;;;;5.03;4.63;;;;;;;-0.82;100.00;95803.00;5052827;28;20033;-69
2024/01/08 09:19:23;;;;;;;5.38;4.88;;;;;;;-0.93;100.00;95795.72;5044626;28;20021;-69
2024/01/08 09:21:48;;;;;;;4.88;4.47;;;;;;;-0.85;100.00;95805.72;5048961;28;20103;-69
2024/01/08 09:24:14;;;;;;;4.70;4.40;;;;;;;-0.82;100.00;95805.59;5047351;28;20032;-69
2024/01/08 09:26:41;;;;;;;4.45;4.05;;;;;;;-0.73;100.00;95807.78;5042791;28;20028;-69
2024/01/08 09:29:08;;;;;;;4.22;3.97;;;;;;;-0.75;100.00;95812.19;5046007;28;20033;-69
2024/01/08 09:31:34;;;;;;;5.32;4.82;;;;;;;-0.76;100.00;95808.75;5042833;28;20128;-68
2024/01/08 09:33:59;;;;;;;6.10;5.60;;;;;;;-0.88;100.00;95807.56;5052352;28;20032;-68
2024/01/08 09:36:24;;;;;;;4.57;4.25;;;;;;;-0.93;100.00;95817.25;5051059;28;20040;-69
2024/01/08 09:38:50;;;;;;;5.82;5.38;;;;;;;-0.91;100.00;95824.94;5053366;28;20103;-68
2024/01/08 09:41:15;;;;;;;4.38;4.05;;;;;;;-0.82;100.00;95826.28;5053823;28;20029;-68
2024/01/08 09:43:45;;;;;;;4.60;4.20;;;;;;;-0.74;100.00;95826.78;5051219;28;20124;-69
2024/01/08 09:46:15;;;;;;;3.60;3.30;;;;;;;-0.67;100.00;95825.59;5052339;28;20453;-69
2024/01/08 09:48:40;;;;;;;5.38;4.88;;;;;;;-0.91;100.00;95823.19;5053523;28;20041;-69
2024/01/08 09:51:07;;;;;;;6.32;5.82;;;;;;;-1.00;100.00;95826.19;5054148;28;20035;-69
2024/01/08 09:53:33;;;;;;;5.45;5.05;;;;;;;-0.94;100.00;95830.25;5052724;28;20663;-68
2024/01/08 09:55:59;;;;;;;8.55;7.75;;;;;;;-0.91;100.00;95833.53;5049531;28;20137;-69
2024/01/08 09:58:25;;;;;;;5.72;5.22;;;;;;;-0.79;100.00;95834.75;5044443;28;20199;-68
2024/01/08 10:00:51;;;;;;;4.75;4.45;;;;;;;-0.74;100.00;95831.97;5053104;28;20040;-69
2024/01/08 10:03:17;;;;;;;4.90;4.40;;;;;;;-0.76;100.00;95841.53;5052783;28;20715;-68
2024/01/08 10:05:42;;;;;;;6.63;6.05;;;;;;;-0.85;100.00;95834.16;5052523;28;20033;-69
2024/01/08 10:08:09;;;;;;;4.40;4.10;;;;;;;-0.81;100.00;95835.69;5051209;28;20539;-68
2024/01/08 10:10:34;;;;;;;6.65;5.93;;;;;;;-0.82;100.00;95839.19;5053722;28;20036;-69
2024/01/08 10:13:01;;;;;;;4.75;4.45;;;;;;;-0.71;100.00;95836.97;5051885;28;20025;-69
2024/01/08 10:15:30;;;;;;;6.85;6.25;;;;;;;-0.72;100.00;95835.31;5050715;28;20025;-69
2024/01/08 10:17:59;;;;;;;6.22;5.63;;;;;;;-0.73;100.00;95836.22;5048412;28;20031;-68
2024/01/08 10:20:25;;;;;;;6.20;5.70;;;;;;;-0.78;100.00;95826.06;5042365;28;20738;-69
2024/01/08 10:23:24;;;;;;;6.30;5.80;;;;;;;-0.68;100.00;95833.41;5051319;28;20095;-69
2024/01/08 10:25:51;;;;;;;5.72;5.22;;;;;;;-0.70;100.00;95837.81;5044105;28;20013;-69
2024/01/08 10:28:20;;;;;;;6.75;5.75;;;;;;;-0.80;100.00;95839.97;5047195;28;20022;-68
2024/01/08 10:30:47;;;;;;;5.95;5.55;;;;;;;-0.73;100.00;95841.38;5040781;28;20132;-69
2024/01/08 10:33:13;;;;;;;7.85;7.15;;;;;;;-0.74;100.00;95837.94;5052457;28;20040;-68
2024/01/08 10:35:40;;;;;;;7.25;6.65;;;;;;;-0.70;100.00;95841.25;5046280;28;20566;-69
2024/01/08 10:38:06;;;;;;;7.88;7.18;;;;;;;-0.72;100.00;95830.13;5052576;28;20032;-69
2024/01/08 10:40:32;;;;;;;5.53;5.13;;;;;;;-0.79;100.00;95841.63;5043050;28;20017;-69
2024/01/08 10:42:57;;;;;;;7.05;5.93;;;;;;;-0.82;100.00;95841.78;5049790;28;20024;-69
2024/01/08 10:45:23;;;;;;;5.57;5.07;;;;;;;-0.69;100.00;95845.50;5039325;28;20489;-69
2024/01/08 10:48:02;;;;;;;6.78;6.28;;;;;;;-0.80;100.00;95843.41;5048662;28;20607;-69
2024/01/08 10:50:28;;;;;;;5.45;5.05;;;;;;;-0.84;100.00;95843.59;5052628;28;20051;-69
2024/01/08 10:52:56;;;;;;;5.25;4.85;;;;;;;-0.87;100.00;95845.41;5041561;28;20030;-68
2024/01/08 10:55:25;;;;;;;5.95;5.45;;;;;;;-0.85;100.00;95844.50;5051882;28;20093;-69
2024/01/08 10:58:02;;;;;;;9.27;8.38;;;;;;;-0.83;100.00;95847.88;5052543;28;20021;-68
2024/01/08 11:00:29;;;;;;;9.05;8.30;;;;;;;-0.85;100.00;95847.09;5051807;28;20422;-69
2024/01/08 11:02:55;;;;;;;12.70;11.50;;;;;;;-0.90;100.00;95850.72;5052920;28;20635;-69
2024/01/08 11:05:21;;;;;;;15.57;14.10;;;;;;;-0.87;100.00;95853.16;5049442;28;20108;-69
2024/01/08 11:07:50;;;;;;;24.88;20.77;;;;;;;-0.73;100.00;95854.31;5046212;28;20016;-69
2024/01/08 11:10:17;;;;;;;7.45;6.85;;;;;;;-0.70;100.00;95846.41;5048074;28;20099;-69
2024/01/08 11:12:54;;;;;;;5.03;4.72;;;;;;;-0.75;100.00;95845.78;5044077;28;20557;-68
2024/01/08 11:15:20;;;;;;;5.50;5.00;;;;;;;-0.82;100.00;95837.47;5047380;28;20068;-68
2024/01/08 11:17:58;;;;;;;6.70;6.20;;;;;;;-0.94;100.00;95836.28;5042996;28;20021;-68
2024/01/08 11:20:41;;;;;;;7.72;6.95;;;;;;;-0.92;100.00;95847.38;5037004;28;20056;-69